createdAt,value
2019-03-03T00:00:38.645Z,5.00
2019-03-03T00:03:07.338Z,4.77
2019-03-03T00:05:35.798Z,5.20
2019-03-03T00:08:04.396Z,6.63
2019-03-03T00:10:32.936Z,6.50
2019-03-03T00:13:01.395Z,8.37
2019-03-03T00:15:29.884Z,8.63
2019-03-03T00:17:58.794Z,9.07
2019-03-03T00:20:28.204Z,8.03
2019-03-03T00:22:56.725Z,8.17
2019-03-03T00:25:25.256Z,8.40
2019-03-03T00:27:53.833Z,12.40
2019-03-03T00:30:22.522Z,7.30
2019-03-03T00:32:51.076Z,14.73
2019-03-03T00:35:19.687Z,11.03
2019-03-03T00:37:52.611Z,8.53
2019-03-03T00:40:25.572Z,9.20
2019-03-03T00:43:11.897Z,5.83
2019-03-03T00:45:45.049Z,5.80
2019-03-03T00:48:18.129Z,7.00
2019-03-03T00:51:00.119Z,4.65
2019-03-03T00:53:31.186Z,6.60
2019-03-03T00:56:09.881Z,6.90
2019-03-03T00:58:42.509Z,7.83
2019-03-03T01:01:21.753Z,5.90
2019-03-03T01:03:57.640Z,5.93
2019-03-03T01:06:27.836Z,5.90
2019-03-03T01:09:12.887Z,7.17
2019-03-03T01:11:45.928Z,7.20
2019-03-03T01:14:16.072Z,6.73
2019-03-03T01:16:46.260Z,7.23
2019-03-03T01:19:22.435Z,9.57
2019-03-03T01:21:52.579Z,6.30
2019-03-03T01:24:28.594Z,9.70
2019-03-03T01:26:57.099Z,11.93
2019-03-03T01:29:25.856Z,8.13
2019-03-03T01:31:54.407Z,6.90
2019-03-03T01:34:22.985Z,11.50
2019-03-03T01:36:51.503Z,10.63
2019-03-03T01:39:19.961Z,8.23
2019-03-03T01:41:48.472Z,8.70
2019-03-03T01:44:17.029Z,7.17
2019-03-03T01:46:45.478Z,8.00
2019-03-03T01:49:13.949Z,8.80
2019-03-03T01:51:42.515Z,10.30
2019-03-03T01:54:11.039Z,6.03
2019-03-03T01:56:39.590Z,7.67
2019-03-03T01:59:08.185Z,6.50
2019-03-03T02:01:36.688Z,9.47
2019-03-03T02:04:05.380Z,7.90
2019-03-03T02:06:33.842Z,8.17
2019-03-03T02:09:02.401Z,4.10
2019-03-03T02:11:30.928Z,5.85
2019-03-03T02:13:59.469Z,4.10
2019-03-03T02:16:27.913Z,7.10
2019-03-03T02:18:56.374Z,5.90
2019-03-03T02:21:24.835Z,5.43
2019-03-03T02:23:53.486Z,6.20
2019-03-03T02:26:22.073Z,5.13
2019-03-03T02:28:50.558Z,6.10
2019-03-03T02:31:19.024Z,4.47
2019-03-03T02:33:47.582Z,3.93
2019-03-03T02:36:16.175Z,4.23
2019-03-03T02:38:44.707Z,4.47
2019-03-03T02:41:13.353Z,4.93
2019-03-03T02:43:42.305Z,6.58
2019-03-03T02:46:10.781Z,3.80
2019-03-03T02:48:39.314Z,5.27
2019-03-03T02:51:07.800Z,5.77
2019-03-03T02:53:36.266Z,6.30
2019-03-03T02:56:04.832Z,5.53
2019-03-03T02:58:33.502Z,5.10
2019-03-03T03:01:09.464Z,3.97
2019-03-03T03:03:37.950Z,6.67
2019-03-03T03:06:20.403Z,4.57
2019-03-03T03:09:07.340Z,6.93
2019-03-03T03:11:50.572Z,7.47
2019-03-03T03:14:29.422Z,5.27
2019-03-03T03:17:08.280Z,5.60
2019-03-03T03:19:41.045Z,3.03
2019-03-03T03:22:14.100Z,5.97
2019-03-03T03:25:00.439Z,2.53
2019-03-03T03:27:30.623Z,7.77
2019-03-03T03:30:03.310Z,4.07
2019-03-03T03:32:36.020Z,4.30
2019-03-03T03:35:08.548Z,3.77
2019-03-03T03:37:41.210Z,5.93
2019-03-03T03:40:21.368Z,6.20
2019-03-03T03:42:54.276Z,4.97
2019-03-03T03:45:40.174Z,6.40
2019-03-03T03:48:26.619Z,8.13
2019-03-03T03:50:56.769Z,6.23
2019-03-03T03:53:29.608Z,5.87
2019-03-03T03:56:05.934Z,6.83
2019-03-03T03:58:45.159Z,5.50
2019-03-03T04:01:26.909Z,5.03
2019-03-03T04:03:59.749Z,6.43
2019-03-03T04:06:41.910Z,8.20
2019-03-03T04:09:16.152Z,5.67
2019-03-03T04:12:04.241Z,5.80
2019-03-03T04:14:36.814Z,6.07
2019-03-03T04:17:07.146Z,5.30
2019-03-03T04:19:43.046Z,4.90
2019-03-03T04:22:13.172Z,11.77
2019-03-03T04:24:49.006Z,3.80
2019-03-03T04:27:27.726Z,6.43
2019-03-03T04:30:00.399Z,4.58
2019-03-03T04:32:36.280Z,5.23
2019-03-03T04:35:10.460Z,5.50
2019-03-03T04:37:46.626Z,4.97
2019-03-03T04:40:19.625Z,5.07
2019-03-03T04:42:49.740Z,8.87
2019-03-03T04:45:19.831Z,5.45
2019-03-03T04:47:49.963Z,6.40
2019-03-03T04:50:20.053Z,4.97
2019-03-03T04:52:50.161Z,4.33
2019-03-03T04:55:35.457Z,4.87
2019-03-03T04:58:21.599Z,4.40
2019-03-03T05:00:54.463Z,4.53
2019-03-03T05:03:33.466Z,8.13
2019-03-03T05:06:03.551Z,4.03
2019-03-03T05:08:42.826Z,5.50
2019-03-03T05:11:16.028Z,5.67
2019-03-03T05:13:46.214Z,5.90
2019-03-03T05:16:19.219Z,6.83
2019-03-03T05:19:04.206Z,6.42
2019-03-03T05:21:32.648Z,5.83
2019-03-03T05:24:01.098Z,5.80
2019-03-03T05:26:29.572Z,6.60
2019-03-03T05:28:58.026Z,5.70
2019-03-03T05:31:26.512Z,6.43
2019-03-03T05:33:54.956Z,6.07
2019-03-03T05:36:23.512Z,8.73
2019-03-03T05:38:51.960Z,4.50
2019-03-03T05:41:20.406Z,4.97
2019-03-03T05:43:48.905Z,6.57
2019-03-03T05:46:17.365Z,6.03
2019-03-03T05:48:45.870Z,5.60
2019-03-03T05:51:14.453Z,4.70
2019-03-03T05:53:42.937Z,8.40
2019-03-03T05:56:11.385Z,5.70
2019-03-03T05:58:39.895Z,4.73
2019-03-03T06:01:08.360Z,4.47
2019-03-03T06:03:36.867Z,6.10
2019-03-03T06:06:05.392Z,6.80
2019-03-03T06:08:33.839Z,6.73
2019-03-03T06:11:02.335Z,5.83
2019-03-03T06:13:30.837Z,9.40
2019-03-03T06:15:59.360Z,8.47
2019-03-03T06:18:27.800Z,6.60
2019-03-03T06:20:56.282Z,3.90
2019-03-03T06:23:24.744Z,6.47
2019-03-03T06:25:53.240Z,4.67
2019-03-03T06:28:21.706Z,4.42
2019-03-03T06:30:50.214Z,5.67
2019-03-03T06:33:18.708Z,7.50
2019-03-03T06:35:47.164Z,4.27
2019-03-03T06:38:15.640Z,5.33
2019-03-03T06:40:44.204Z,5.40
2019-03-03T06:43:12.675Z,25.03
2019-03-03T06:45:41.142Z,3.30
2019-03-03T06:48:09.654Z,2.80
2019-03-03T06:50:38.213Z,4.23
2019-03-03T06:53:06.657Z,4.47
2019-03-03T06:55:35.145Z,4.90
2019-03-03T06:58:03.653Z,4.60
2019-03-03T07:00:32.203Z,2.90
2019-03-03T07:03:00.648Z,3.83
2019-03-03T07:05:29.135Z,4.00
2019-03-03T07:07:57.631Z,4.50
2019-03-03T07:10:26.181Z,3.47
2019-03-03T07:12:54.760Z,4.17
2019-03-03T07:15:23.317Z,4.10
2019-03-03T07:17:51.761Z,7.07
2019-03-03T07:20:20.239Z,4.07
2019-03-03T07:22:49.612Z,3.90
2019-03-03T07:25:18.252Z,4.23
2019-03-03T07:27:47.356Z,3.73
2019-03-03T07:30:16.850Z,8.77
2019-03-03T07:33:05.025Z,7.80
2019-03-03T07:35:33.644Z,2.83
2019-03-03T07:38:02.215Z,5.10
2019-03-03T07:40:30.691Z,5.30
2019-03-03T07:42:59.142Z,6.00
2019-03-03T07:45:27.760Z,4.63
2019-03-03T07:47:56.223Z,4.27
2019-03-03T07:50:24.781Z,2.50
2019-03-03T07:52:53.267Z,6.03
2019-03-03T07:55:21.729Z,3.73
2019-03-03T07:57:50.284Z,3.53
2019-03-03T08:00:18.855Z,5.17
2019-03-03T08:02:47.578Z,2.47
2019-03-03T08:05:16.118Z,2.62
2019-03-03T08:07:44.569Z,9.60
2019-03-03T08:10:14.969Z,4.97
2019-03-03T08:12:43.499Z,7.23
2019-03-03T08:15:17.004Z,3.20
2019-03-03T08:17:45.468Z,4.00
2019-03-03T08:20:14.968Z,8.83
2019-03-03T08:22:43.544Z,5.83
2019-03-03T08:25:12.839Z,2.53
2019-03-03T08:27:41.344Z,3.10
2019-03-03T08:30:12.189Z,3.40
2019-03-03T08:32:40.755Z,3.90
2019-03-03T08:35:11.743Z,3.00
2019-03-03T08:37:40.234Z,2.80
2019-03-03T08:40:10.147Z,3.87
2019-03-03T08:42:40.342Z,4.83
2019-03-03T08:45:11.078Z,2.83
2019-03-03T08:47:53.239Z,5.90
2019-03-03T08:50:24.984Z,7.50
2019-03-03T08:53:07.319Z,3.30
2019-03-03T08:55:53.723Z,4.57
2019-03-03T08:58:41.758Z,4.53
2019-03-03T09:01:11.867Z,4.60
2019-03-03T09:03:59.912Z,3.50
2019-03-03T09:06:38.856Z,2.10
2019-03-03T09:09:27.281Z,3.30
2019-03-03T09:12:00.354Z,3.40
2019-03-03T09:14:42.294Z,2.67
2019-03-03T09:17:15.450Z,2.00
2019-03-03T09:19:48.281Z,2.90
2019-03-03T09:22:18.367Z,2.67
2019-03-03T09:24:48.516Z,6.03
2019-03-03T09:27:24.374Z,4.53
2019-03-03T09:29:54.513Z,3.17
2019-03-03T09:32:40.894Z,2.73
2019-03-03T09:35:14.103Z,2.40
2019-03-03T09:37:44.324Z,2.50
2019-03-03T09:40:20.567Z,2.00
2019-03-03T09:42:50.731Z,1.70
2019-03-03T09:45:23.302Z,1.95
2019-03-03T09:47:59.102Z,2.93
2019-03-03T09:50:37.898Z,2.33
2019-03-03T09:53:16.886Z,2.10
2019-03-03T09:55:56.184Z,2.73
2019-03-03T09:58:42.466Z,2.47
2019-03-03T10:01:12.590Z,4.83
2019-03-03T10:03:45.565Z,2.93
2019-03-03T10:06:24.361Z,2.67
2019-03-03T10:08:59.946Z,2.50
2019-03-03T10:11:32.683Z,4.13
2019-03-03T10:14:05.500Z,1.83
2019-03-03T10:16:35.691Z,2.60
2019-03-03T10:19:23.417Z,3.33
2019-03-03T10:22:05.590Z,2.87
2019-03-03T10:24:38.701Z,4.37
2019-03-03T10:27:08.897Z,2.22
2019-03-03T10:29:50.905Z,5.07
2019-03-03T10:32:36.229Z,2.83
2019-03-03T10:35:23.871Z,7.33
2019-03-03T10:37:59.767Z,2.33
2019-03-03T10:40:29.891Z,4.70
2019-03-03T10:43:02.704Z,2.00
2019-03-03T10:45:32.798Z,3.50
2019-03-03T10:48:11.949Z,3.47
2019-03-03T10:50:44.694Z,4.03
2019-03-03T10:53:15.188Z,6.33
2019-03-03T10:55:45.401Z,5.50
2019-03-03T10:58:15.576Z,2.77
2019-03-03T11:01:01.778Z,2.87
2019-03-03T11:03:35.056Z,3.33
2019-03-03T11:06:14.214Z,3.30
2019-03-03T11:08:44.416Z,3.87
2019-03-03T11:11:32.779Z,4.20
2019-03-03T11:14:21.413Z,2.83
2019-03-03T11:17:06.294Z,7.83
2019-03-03T11:19:36.446Z,2.50
2019-03-03T11:22:06.779Z,4.80
2019-03-03T11:24:49.191Z,4.83
2019-03-03T11:27:31.498Z,5.70
2019-03-03T11:30:07.209Z,4.87
2019-03-03T11:32:53.404Z,4.23
2019-03-03T11:35:23.497Z,8.73
2019-03-03T11:37:59.494Z,3.33
2019-03-03T11:40:32.538Z,3.20
2019-03-03T11:43:05.462Z,4.47
2019-03-03T11:45:38.627Z,4.43
2019-03-03T11:48:08.837Z,3.08
2019-03-03T11:50:51.374Z,3.27
2019-03-03T11:53:21.497Z,3.00
2019-03-03T11:55:57.770Z,1.90
2019-03-03T11:58:37.407Z,3.92
2019-03-03T12:01:10.553Z,4.50
2019-03-03T12:03:40.676Z,1.50
2019-03-03T12:06:10.773Z,5.95
2019-03-03T12:08:46.808Z,2.80
2019-03-03T12:11:16.910Z,2.47
2019-03-03T12:14:03.472Z,2.37
2019-03-03T12:16:45.907Z,2.27
2019-03-03T12:19:16.163Z,2.00
2019-03-03T12:21:55.311Z,1.60
2019-03-03T12:24:25.511Z,2.53
2019-03-03T12:27:11.571Z,2.63
2019-03-03T12:29:57.484Z,2.20
2019-03-03T12:32:33.326Z,9.03
2019-03-03T12:35:03.453Z,1.83
2019-03-03T12:37:42.766Z,3.23
2019-03-03T12:40:29.491Z,3.80
2019-03-03T12:43:05.530Z,2.50
2019-03-03T12:45:38.401Z,4.30
2019-03-03T12:48:14.522Z,2.97
2019-03-03T12:50:54.289Z,4.60
2019-03-03T12:53:27.259Z,3.10
2019-03-03T12:56:00.181Z,4.90
2019-03-03T12:58:35.809Z,4.17
2019-03-03T13:01:23.845Z,2.20
2019-03-03T13:03:54.189Z,2.00
2019-03-03T13:06:30.472Z,4.37
2019-03-03T13:09:18.524Z,1.73
2019-03-03T13:11:50.766Z,1.67
2019-03-03T13:14:36.907Z,2.23
2019-03-03T13:17:07.193Z,2.53
2019-03-03T13:19:46.359Z,1.90
2019-03-03T13:22:19.524Z,2.40
2019-03-03T13:24:52.289Z,1.20
2019-03-03T13:27:22.448Z,2.10
2019-03-03T13:29:55.225Z,2.60
2019-03-03T13:32:37.515Z,1.47
2019-03-03T13:35:08.769Z,2.58
2019-03-03T13:37:41.735Z,1.77
2019-03-03T13:40:12.024Z,1.47
2019-03-03T13:42:47.641Z,3.23
2019-03-03T13:45:16.367Z,1.90
2019-03-03T13:47:45.012Z,4.00
2019-03-03T13:50:15.783Z,4.40
2019-03-03T13:52:44.705Z,1.37
2019-03-03T13:55:14.083Z,1.37
2019-03-03T13:57:42.605Z,1.00
2019-03-03T14:00:19.405Z,2.33
2019-03-03T14:02:48.461Z,2.50
2019-03-03T14:05:18.859Z,2.20
2019-03-03T14:07:47.572Z,2.57
2019-03-03T14:10:16.268Z,2.62
2019-03-03T14:12:44.902Z,1.00
2019-03-03T14:15:17.868Z,2.03
2019-03-03T14:17:46.475Z,1.20
2019-03-03T14:20:20.657Z,1.80
2019-03-03T14:22:50.057Z,5.20
2019-03-03T14:25:18.668Z,1.70
2019-03-03T14:27:47.122Z,0.90
2019-03-03T14:30:20.409Z,1.40
2019-03-03T14:32:49.107Z,2.33
2019-03-03T14:35:17.688Z,2.00
2019-03-03T14:37:46.340Z,1.60
2019-03-03T14:40:21.015Z,1.22
2019-03-03T14:42:49.713Z,1.57
2019-03-03T14:45:19.334Z,1.00
2019-03-03T14:47:48.157Z,1.17
2019-03-03T14:50:18.400Z,5.83
2019-03-03T14:52:48.489Z,6.23
2019-03-03T14:55:18.759Z,1.17
2019-03-03T14:57:47.474Z,1.00
2019-03-03T15:00:22.155Z,0.90
2019-03-03T15:02:51.989Z,3.17
2019-03-03T15:05:21.090Z,1.43
2019-03-03T15:07:49.710Z,2.10
2019-03-03T15:10:18.395Z,1.60
2019-03-03T15:12:47.034Z,11.97
2019-03-03T15:15:24.425Z,28.00
2019-03-03T15:17:53.074Z,49.53
2019-03-03T15:20:21.701Z,10.00
2019-03-03T15:22:50.308Z,2.50
2019-03-03T15:25:19.308Z,1.57
2019-03-03T15:27:47.968Z,1.83
2019-03-03T15:30:19.013Z,1.80
2019-03-03T15:32:47.622Z,1.10
2019-03-03T15:35:16.912Z,1.17
2019-03-03T15:37:46.140Z,1.10
2019-03-03T15:40:17.670Z,1.17
2019-03-03T15:42:46.363Z,1.60
2019-03-03T15:45:17.234Z,1.52
2019-03-03T15:47:45.872Z,1.47
2019-03-03T15:50:14.785Z,0.90
2019-03-03T15:52:43.334Z,4.67
2019-03-03T15:55:14.219Z,4.65
2019-03-03T15:57:42.947Z,7.85
2019-03-03T16:00:14.409Z,14.90
2019-03-03T16:02:42.952Z,5.73
2019-03-03T16:05:11.768Z,6.20
2019-03-03T16:07:41.089Z,3.08
2019-03-03T16:10:18.415Z,3.90
2019-03-03T16:12:46.956Z,4.50
2019-03-03T16:15:17.369Z,3.97
2019-03-03T16:17:46.020Z,10.40
2019-03-03T16:20:17.606Z,4.50
2019-03-03T16:22:46.263Z,3.93
2019-03-03T16:25:18.116Z,3.55
2019-03-03T16:27:46.674Z,2.20
2019-03-03T16:30:18.021Z,1.33
2019-03-03T16:32:48.151Z,1.80
2019-03-03T16:35:16.886Z,2.30
2019-03-03T16:37:45.406Z,2.70
2019-03-03T16:40:16.507Z,6.90
2019-03-03T16:42:45.209Z,2.70
2019-03-03T16:45:15.411Z,5.23
2019-03-03T16:47:44.106Z,2.67
2019-03-03T16:50:15.167Z,2.27
2019-03-03T16:52:43.651Z,2.37
2019-03-03T16:55:14.035Z,7.60
2019-03-03T16:57:42.667Z,15.17
2019-03-03T17:00:13.978Z,12.90
2019-03-03T17:02:42.585Z,15.97
2019-03-03T17:05:15.974Z,6.23
2019-03-03T17:07:44.534Z,11.53
2019-03-03T17:10:13.538Z,7.08
2019-03-03T17:12:42.370Z,5.07
2019-03-03T17:15:16.769Z,3.10
2019-03-03T17:17:45.335Z,5.30
2019-03-03T17:20:13.959Z,5.80
2019-03-03T17:22:42.604Z,4.00
2019-03-03T17:25:15.779Z,3.30
2019-03-03T17:27:44.368Z,2.83
2019-03-03T17:30:18.449Z,3.33
2019-03-03T17:32:46.964Z,3.60
2019-03-03T17:35:15.710Z,7.90
2019-03-03T17:37:44.401Z,73.03
2019-03-03T17:40:18.059Z,64.17
2019-03-03T17:42:46.656Z,10.27
2019-03-03T17:45:17.092Z,2.50
2019-03-03T17:47:45.529Z,3.00
2019-03-03T17:50:16.630Z,3.08
2019-03-03T17:52:45.430Z,4.30
2019-03-03T17:55:15.357Z,6.47
2019-03-03T17:57:44.052Z,5.17
2019-03-03T18:00:25.049Z,5.50
2019-03-03T18:02:53.694Z,10.20
2019-03-03T18:05:22.363Z,7.97
2019-03-03T18:07:50.958Z,4.33
2019-03-03T18:10:19.996Z,6.73
2019-03-03T18:12:48.518Z,4.87
2019-03-03T18:15:17.811Z,4.25
2019-03-03T18:17:46.349Z,3.03
2019-03-03T18:20:19.503Z,3.03
2019-03-03T18:22:48.307Z,3.00
2019-03-03T18:25:17.998Z,3.77
2019-03-03T18:27:46.716Z,48.70
2019-03-03T18:30:20.213Z,7.07
2019-03-03T18:32:48.810Z,5.17
2019-03-03T18:35:17.458Z,36.50
2019-03-03T18:37:46.155Z,61.03
2019-03-03T18:40:17.355Z,44.37
2019-03-03T18:42:46.376Z,63.90
2019-03-03T18:45:17.331Z,43.60
2019-03-03T18:47:45.901Z,69.47
2019-03-03T18:50:19.729Z,71.57
2019-03-03T18:52:48.284Z,78.73
2019-03-03T18:55:17.096Z,54.37
2019-03-03T18:57:46.689Z,25.67
2019-03-03T19:00:17.899Z,29.87
2019-03-03T19:02:46.585Z,19.97
2019-03-03T19:05:15.219Z,30.23
2019-03-03T19:07:43.783Z,34.77
2019-03-03T19:10:25.268Z,41.57
2019-03-03T19:12:54.034Z,32.43
2019-03-03T19:15:22.649Z,3.17
2019-03-03T19:17:51.266Z,3.73
2019-03-03T19:20:20.679Z,5.87
2019-03-03T19:22:49.671Z,9.07
2019-03-03T19:25:18.569Z,13.80
2019-03-03T19:27:47.301Z,14.23
2019-03-03T19:30:23.730Z,6.65
2019-03-03T19:32:58.155Z,6.87
2019-03-03T19:35:26.747Z,10.37
2019-03-03T19:37:55.356Z,16.73
2019-03-03T19:40:23.927Z,9.20
2019-03-03T19:42:52.665Z,8.10
2019-03-03T19:45:27.113Z,8.38
2019-03-03T19:47:55.832Z,11.47
2019-03-03T19:50:24.653Z,11.37
2019-03-03T19:52:53.232Z,11.67
2019-03-03T19:55:23.245Z,17.00
2019-03-03T19:57:52.075Z,22.83
2019-03-03T20:00:39.051Z,20.57
2019-03-03T20:03:08.211Z,23.17
2019-03-03T20:05:36.793Z,18.40
2019-03-03T20:08:06.061Z,24.10
2019-03-03T20:10:34.939Z,10.65
2019-03-03T20:13:03.553Z,7.30
2019-03-03T20:15:32.338Z,7.07
2019-03-03T20:18:01.046Z,27.23
2019-03-03T20:20:30.499Z,58.27
2019-03-03T20:22:59.111Z,91.20
2019-03-03T20:25:27.614Z,28.37
2019-03-03T20:27:56.120Z,21.23
2019-03-03T20:30:25.728Z,22.80
2019-03-03T20:32:54.424Z,19.60
2019-03-03T20:35:23.052Z,18.30
2019-03-03T20:37:51.653Z,10.00
2019-03-03T20:40:25.351Z,14.58
2019-03-03T20:42:54.938Z,12.87
2019-03-03T20:45:25.803Z,13.70
2019-03-03T20:47:54.454Z,6.50
2019-03-03T20:50:23.345Z,5.77
2019-03-03T20:52:52.033Z,3.10
2019-03-03T20:55:25.020Z,5.40
2019-03-03T20:57:53.662Z,4.83
2019-03-03T21:00:26.963Z,4.57
2019-03-03T21:02:55.789Z,6.20
2019-03-03T21:05:24.392Z,11.80
2019-03-03T21:07:52.894Z,14.40
2019-03-03T21:10:23.866Z,9.33
2019-03-03T21:12:52.470Z,10.83
2019-03-03T21:15:21.177Z,9.53
2019-03-03T21:17:49.743Z,7.13
2019-03-03T21:20:20.408Z,7.90
2019-03-03T21:22:49.221Z,5.20
2019-03-03T21:25:18.561Z,7.50
2019-03-03T21:27:47.156Z,6.33
2019-03-03T21:30:29.153Z,6.27
2019-03-03T21:32:57.643Z,7.27
2019-03-03T21:35:26.203Z,7.67
2019-03-03T21:37:54.724Z,6.30
2019-03-03T21:40:24.641Z,6.87
2019-03-03T21:42:53.244Z,11.03
2019-03-03T21:45:23.940Z,5.77
2019-03-03T21:47:52.566Z,5.00
2019-03-03T21:50:25.686Z,7.63
2019-03-03T21:52:54.226Z,5.67
2019-03-03T21:55:22.738Z,5.30
2019-03-03T21:57:51.290Z,6.80
2019-03-03T22:00:34.182Z,8.13
2019-03-03T22:03:02.693Z,6.00
2019-03-03T22:05:31.402Z,2.40
2019-03-03T22:07:59.841Z,3.40
2019-03-03T22:10:31.575Z,3.30
2019-03-03T22:13:01.516Z,2.37
2019-03-03T22:15:30.168Z,2.00
2019-03-03T22:17:58.731Z,1.77
2019-03-03T22:20:27.257Z,2.30
2019-03-03T22:22:55.798Z,2.23
2019-03-03T22:25:24.349Z,3.52
2019-03-03T22:27:52.812Z,2.33
2019-03-03T22:30:21.361Z,2.63
2019-03-03T22:32:49.981Z,2.00
2019-03-03T22:35:18.991Z,2.80
2019-03-03T22:37:47.512Z,9.05
2019-03-03T22:40:21.150Z,11.93
2019-03-03T22:42:49.772Z,8.40
2019-03-03T22:45:18.755Z,9.00
2019-03-03T22:47:47.241Z,7.80
2019-03-03T22:50:20.503Z,11.03
2019-03-03T22:52:49.182Z,9.57
2019-03-03T22:55:19.362Z,12.20
2019-03-03T22:57:47.988Z,13.80
2019-03-03T23:00:26.963Z,9.40
2019-03-03T23:02:55.521Z,10.13
2019-03-03T23:05:35.970Z,4.70
2019-03-03T23:08:07.532Z,5.23
2019-03-03T23:10:51.020Z,2.20
2019-03-03T23:13:40.407Z,2.50
2019-03-03T23:16:20.659Z,3.63
2019-03-03T23:19:13.187Z,3.47
2019-03-03T23:22:05.621Z,4.93
2019-03-03T23:24:53.504Z,6.10
2019-03-03T23:27:21.969Z,12.63
2019-03-03T23:29:50.535Z,12.25
2019-03-03T23:32:19.157Z,8.50
2019-03-03T23:34:47.614Z,17.67
2019-03-03T23:37:16.199Z,16.30
2019-03-03T23:39:44.665Z,11.30
2019-03-03T23:42:13.240Z,16.37
2019-03-03T23:44:41.768Z,16.97
2019-03-03T23:47:10.216Z,11.53
2019-03-03T23:49:38.778Z,13.83
2019-03-03T23:52:07.236Z,14.57
2019-03-03T23:54:35.885Z,15.87
2019-03-03T23:57:04.344Z,10.10
2019-03-03T23:59:32.831Z,9.23
